createdAt,value
2023-03-22T00:02:05.982Z,4.60
2023-03-22T00:04:32.814Z,5.33
2023-03-22T00:06:59.416Z,8.30
2023-03-22T00:09:25.982Z,6.77
2023-03-22T00:11:52.868Z,6.63
2023-03-22T00:14:19.410Z,5.77
2023-03-22T00:16:49.486Z,4.90
2023-03-22T00:19:17.410Z,5.07
2023-03-22T00:21:44.338Z,5.60
2023-03-22T00:24:11.050Z,5.27
2023-03-22T00:26:37.876Z,5.63
2023-03-22T00:29:04.740Z,6.67
2023-03-22T00:31:31.919Z,6.50
2023-03-22T00:33:58.599Z,5.50
2023-03-22T00:36:25.273Z,5.40
2023-03-22T00:38:52.227Z,5.20
2023-03-22T00:41:20.562Z,5.50
2023-03-22T00:43:47.685Z,7.10
2023-03-22T00:46:15.591Z,5.30
2023-03-22T00:48:42.183Z,6.20
2023-03-22T00:51:10.060Z,6.37
2023-03-22T00:53:37.072Z,5.70
2023-03-22T00:56:06.821Z,4.77
2023-03-22T00:58:33.527Z,4.57
2023-03-22T01:01:00.372Z,5.10
2023-03-22T01:03:26.976Z,5.33
2023-03-22T01:05:56.784Z,5.73
2023-03-22T01:08:24.365Z,5.27
2023-03-22T01:10:50.976Z,5.70
2023-03-22T01:13:18.200Z,5.37
2023-03-22T01:15:45.362Z,5.97
2023-03-22T01:18:11.818Z,4.97
2023-03-22T01:20:38.727Z,4.17
2023-03-22T01:23:05.450Z,6.03
2023-03-22T01:25:32.411Z,6.23
2023-03-22T01:27:59.224Z,6.40
2023-03-22T01:30:26.128Z,5.80
2023-03-22T01:32:53.000Z,6.60
2023-03-22T01:35:19.537Z,6.87
2023-03-22T01:37:46.021Z,7.10
2023-03-22T01:40:14.584Z,7.47
2023-03-22T01:42:41.125Z,5.27
2023-03-22T01:45:13.520Z,6.03
2023-03-22T01:47:41.647Z,6.37
2023-03-22T01:50:08.989Z,6.17
2023-03-22T01:52:36.382Z,5.80
2023-03-22T01:55:04.843Z,5.37
2023-03-22T01:57:33.573Z,4.87
2023-03-22T02:00:00.671Z,5.20
2023-03-22T02:02:31.004Z,5.50
2023-03-22T02:04:58.192Z,4.13
2023-03-22T02:07:27.414Z,6.10
2023-03-22T02:09:54.361Z,7.17
2023-03-22T02:12:37.789Z,6.50
2023-03-22T02:15:28.697Z,5.77
2023-03-22T02:18:01.658Z,6.50
2023-03-22T02:20:34.103Z,4.70
2023-03-22T02:23:28.481Z,4.27
2023-03-22T02:26:07.280Z,4.23
2023-03-22T02:28:48.451Z,3.50
2023-03-22T02:31:36.135Z,4.30
2023-03-22T02:34:27.175Z,3.50
2023-03-22T02:37:12.873Z,3.60
2023-03-22T02:39:47.307Z,3.67
2023-03-22T02:42:35.643Z,3.40
2023-03-22T02:45:09.749Z,3.47
2023-03-22T02:47:49.852Z,3.87
2023-03-22T02:50:46.455Z,3.50
2023-03-22T02:53:20.234Z,4.27
2023-03-22T02:55:59.519Z,3.80
2023-03-22T02:58:36.071Z,4.37
2023-03-22T03:01:09.489Z,4.10
2023-03-22T03:03:39.964Z,3.73
2023-03-22T03:06:19.295Z,5.00
2023-03-22T03:08:50.775Z,4.40
2023-03-22T03:11:17.836Z,3.83
2023-03-22T03:13:47.808Z,5.30
2023-03-22T03:16:17.542Z,4.60
2023-03-22T03:18:48.907Z,4.43
2023-03-22T03:21:32.669Z,4.03
2023-03-22T03:24:23.383Z,5.47
2023-03-22T03:26:56.042Z,5.10
2023-03-22T03:29:48.481Z,4.80
2023-03-22T03:32:20.930Z,4.47
2023-03-22T03:34:57.278Z,4.43
2023-03-22T03:37:29.642Z,4.27
2023-03-22T03:40:02.021Z,3.80
2023-03-22T03:42:29.222Z,3.93
2023-03-22T03:44:56.384Z,3.30
2023-03-22T03:47:23.227Z,3.60
2023-03-22T03:49:50.342Z,3.50
2023-03-22T03:52:16.826Z,3.23
2023-03-22T03:54:43.403Z,3.50
2023-03-22T03:57:09.900Z,3.80
2023-03-22T03:59:36.704Z,3.60
2023-03-22T04:02:03.201Z,3.80
2023-03-22T04:04:29.883Z,3.50
2023-03-22T04:06:59.057Z,3.17
2023-03-22T04:09:28.055Z,4.37
2023-03-22T04:11:55.482Z,4.03
2023-03-22T04:14:22.462Z,4.67
2023-03-22T04:16:49.010Z,4.63
2023-03-22T04:19:16.533Z,3.80
2023-03-22T04:21:43.303Z,3.90
2023-03-22T04:24:10.484Z,3.20
2023-03-22T04:26:36.951Z,3.87
2023-03-22T04:29:04.329Z,5.10
2023-03-22T04:31:32.661Z,5.10
2023-03-22T04:34:05.426Z,5.20
2023-03-22T04:36:36.493Z,5.07
2023-03-22T04:39:05.807Z,3.93
2023-03-22T04:41:33.247Z,4.10
2023-03-22T04:44:03.364Z,3.40
2023-03-22T04:46:35.440Z,3.80
2023-03-22T04:49:02.133Z,3.77
2023-03-22T04:51:30.427Z,6.10
2023-03-22T04:53:57.036Z,4.70
2023-03-22T04:56:24.762Z,4.33
2023-03-22T04:58:51.334Z,4.30
2023-03-22T05:01:18.387Z,3.80
2023-03-22T05:03:47.720Z,3.80
2023-03-22T05:06:14.990Z,4.83
2023-03-22T05:08:41.732Z,4.10
2023-03-22T05:11:14.389Z,3.83
2023-03-22T05:13:41.221Z,3.97
2023-03-22T05:16:08.272Z,4.20
2023-03-22T05:18:38.015Z,4.27
2023-03-22T05:21:06.831Z,5.07
2023-03-22T05:23:33.386Z,4.93
2023-03-22T05:26:01.803Z,4.70
2023-03-22T05:28:28.459Z,5.33
2023-03-22T05:30:57.132Z,4.03
2023-03-22T05:33:23.860Z,4.37
2023-03-22T05:35:53.488Z,4.50
2023-03-22T05:38:22.909Z,4.03
2023-03-22T05:40:49.472Z,4.50
2023-03-22T05:43:15.994Z,4.37
2023-03-22T05:45:42.516Z,4.03
2023-03-22T05:48:09.287Z,4.80
2023-03-22T05:50:36.265Z,4.63
2023-03-22T05:53:04.032Z,5.60
2023-03-22T05:55:32.171Z,4.43
2023-03-22T05:57:59.662Z,4.30
2023-03-22T06:00:27.073Z,4.20
2023-03-22T06:02:56.434Z,3.83
2023-03-22T06:05:23.542Z,4.40
2023-03-22T06:07:50.476Z,3.70
2023-03-22T06:10:18.215Z,3.57
2023-03-22T06:12:45.412Z,3.70
2023-03-22T06:15:12.333Z,4.17
2023-03-22T06:17:38.979Z,3.93
2023-03-22T06:20:12.180Z,4.10
2023-03-22T06:22:39.197Z,4.03
2023-03-22T06:25:07.412Z,4.57
2023-03-22T06:27:34.462Z,4.43
2023-03-22T06:30:01.241Z,4.40
2023-03-22T06:32:28.171Z,4.03
2023-03-22T06:34:54.921Z,4.30
2023-03-22T06:37:22.308Z,3.53
2023-03-22T06:39:49.062Z,3.80
2023-03-22T06:42:15.899Z,3.47
2023-03-22T06:44:44.565Z,3.70
2023-03-22T06:47:11.815Z,3.07
2023-03-22T06:49:38.800Z,4.20
2023-03-22T06:52:05.779Z,3.43
2023-03-22T06:54:32.311Z,3.43
2023-03-22T06:56:58.885Z,3.23
2023-03-22T06:59:25.492Z,3.60
2023-03-22T07:01:51.971Z,3.63
2023-03-22T07:04:20.237Z,3.37
2023-03-22T07:06:47.111Z,3.50
2023-03-22T07:09:13.863Z,4.30
2023-03-22T07:11:40.425Z,3.30
2023-03-22T07:14:06.968Z,3.53
2023-03-22T07:16:33.554Z,3.57
2023-03-22T07:19:00.157Z,3.43
2023-03-22T07:21:26.846Z,4.00
2023-03-22T07:23:53.484Z,3.87
2023-03-22T07:26:20.079Z,3.87
2023-03-22T07:28:47.063Z,3.50
2023-03-22T07:31:14.708Z,3.50
2023-03-22T07:33:41.653Z,3.67
2023-03-22T07:36:09.230Z,3.40
2023-03-22T07:38:36.063Z,3.07
2023-03-22T07:41:03.705Z,3.17
2023-03-22T07:43:30.216Z,3.17
2023-03-22T07:45:57.096Z,3.47
2023-03-22T07:48:24.086Z,3.57
2023-03-22T07:50:55.539Z,3.33
2023-03-22T07:53:22.386Z,2.80
2023-03-22T07:55:48.908Z,3.57
2023-03-22T07:58:15.752Z,3.17
2023-03-22T08:00:42.422Z,2.87
2023-03-22T08:03:11.734Z,3.33
2023-03-22T08:05:42.926Z,3.20
2023-03-22T08:08:10.353Z,3.20
2023-03-22T08:10:37.049Z,3.10
2023-03-22T08:13:04.097Z,3.50
2023-03-22T08:15:30.654Z,3.67
2023-03-22T08:17:58.165Z,3.07
2023-03-22T08:20:27.845Z,3.70
2023-03-22T08:22:55.048Z,3.27
2023-03-22T08:25:22.120Z,3.13
2023-03-22T08:27:48.720Z,3.20
2023-03-22T08:30:15.384Z,2.97
2023-03-22T08:32:41.973Z,2.90
2023-03-22T08:35:09.185Z,3.40
2023-03-22T08:37:35.807Z,3.27
2023-03-22T08:40:02.368Z,4.97
2023-03-22T08:42:28.940Z,3.13
2023-03-22T08:44:55.603Z,3.20
2023-03-22T08:47:22.140Z,3.33
2023-03-22T08:49:48.712Z,3.47
2023-03-22T08:52:15.403Z,3.63
2023-03-22T08:54:42.289Z,3.33
2023-03-22T08:57:11.577Z,3.93
2023-03-22T08:59:38.351Z,3.30
2023-03-22T09:02:04.937Z,3.20
2023-03-22T09:04:31.750Z,3.13
2023-03-22T09:06:58.264Z,3.67
2023-03-22T09:09:25.269Z,3.43
2023-03-22T09:11:51.862Z,3.60
2023-03-22T09:14:18.447Z,3.20
2023-03-22T09:16:45.633Z,3.80
2023-03-22T09:19:12.340Z,3.73
2023-03-22T09:21:38.797Z,3.10
2023-03-22T09:24:05.510Z,2.87
2023-03-22T09:26:32.180Z,3.47
2023-03-22T09:28:58.741Z,2.50
2023-03-22T09:31:25.613Z,2.47
2023-03-22T09:33:52.102Z,2.83
2023-03-22T09:36:19.883Z,3.20
2023-03-22T09:38:46.803Z,3.00
2023-03-22T09:41:17.834Z,3.27
2023-03-22T09:43:55.640Z,2.73
2023-03-22T09:46:31.137Z,3.10
2023-03-22T09:49:00.245Z,3.50
2023-03-22T09:51:34.024Z,3.17
2023-03-22T09:54:00.628Z,4.17
2023-03-22T09:56:30.328Z,3.30
2023-03-22T09:59:14.005Z,3.30
2023-03-22T10:01:47.233Z,3.23
2023-03-22T10:04:30.137Z,3.73
2023-03-22T10:07:03.579Z,3.40
2023-03-22T10:09:35.445Z,3.97
2023-03-22T10:12:13.711Z,2.80
2023-03-22T10:14:42.723Z,3.23
2023-03-22T10:17:13.554Z,2.90
2023-03-22T10:19:53.926Z,3.73
2023-03-22T10:22:25.358Z,2.80
2023-03-22T10:24:52.595Z,3.20
2023-03-22T10:27:21.133Z,2.87
2023-03-22T10:29:52.121Z,2.90
2023-03-22T10:32:22.595Z,2.90
2023-03-22T10:34:49.763Z,2.67
2023-03-22T10:37:32.108Z,2.83
2023-03-22T10:40:01.005Z,3.17
2023-03-22T10:42:29.131Z,3.00
2023-03-22T10:44:58.832Z,2.80
2023-03-22T10:47:40.498Z,3.00
2023-03-22T10:50:16.171Z,2.97
2023-03-22T10:52:56.790Z,3.70
2023-03-22T10:55:24.481Z,2.80
2023-03-22T10:58:21.173Z,3.23
2023-03-22T11:00:52.041Z,3.60
2023-03-22T11:03:29.503Z,3.57
2023-03-22T11:06:13.828Z,3.37
2023-03-22T11:08:52.132Z,3.33
2023-03-22T11:11:22.943Z,3.67
2023-03-22T11:13:51.161Z,3.00
2023-03-22T11:16:18.404Z,3.43
2023-03-22T11:18:44.968Z,3.17
2023-03-22T11:21:12.623Z,3.93
2023-03-22T11:23:42.815Z,3.10
2023-03-22T11:26:12.122Z,2.87
2023-03-22T11:28:50.846Z,3.20
2023-03-22T11:31:19.582Z,3.50
2023-03-22T11:34:12.204Z,3.53
2023-03-22T11:36:44.140Z,3.00
2023-03-22T11:39:12.065Z,3.10
2023-03-22T11:41:40.319Z,3.43
2023-03-22T11:44:13.179Z,2.73
2023-03-22T11:46:40.361Z,2.70
2023-03-22T11:49:16.692Z,4.10
2023-03-22T11:51:45.174Z,3.60
2023-03-22T11:54:30.477Z,3.83
2023-03-22T11:57:00.145Z,3.50
2023-03-22T11:59:31.386Z,3.50
2023-03-22T12:02:20.659Z,3.57
2023-03-22T12:04:48.716Z,5.40
2023-03-22T12:07:19.578Z,4.03
2023-03-22T12:09:55.100Z,4.23
2023-03-22T12:12:28.822Z,3.90
2023-03-22T12:15:23.577Z,4.50
2023-03-22T12:17:58.909Z,4.97
2023-03-22T12:20:53.388Z,5.20
2023-03-22T12:23:23.498Z,4.40
2023-03-22T12:25:59.192Z,5.47
2023-03-22T12:28:41.691Z,4.00
2023-03-22T12:31:39.416Z,4.03
2023-03-22T12:34:15.884Z,4.77
2023-03-22T12:36:45.810Z,4.93
2023-03-22T12:39:35.892Z,4.93
2023-03-22T12:42:34.987Z,4.23
2023-03-22T12:45:11.631Z,4.90
2023-03-22T12:47:41.890Z,4.00
2023-03-22T12:50:15.419Z,4.63
2023-03-22T12:52:49.985Z,3.93
2023-03-22T12:55:30.119Z,4.67
2023-03-22T12:57:58.180Z,4.70
2023-03-22T13:00:48.276Z,3.97
2023-03-22T13:03:18.286Z,4.63
2023-03-22T13:05:47.216Z,4.93
2023-03-22T13:08:14.243Z,4.80
2023-03-22T13:10:49.143Z,4.20
2023-03-22T13:13:21.584Z,5.47
2023-03-22T13:16:10.881Z,4.30
2023-03-22T13:18:40.374Z,12.00
2023-03-22T13:21:19.358Z,4.33
2023-03-22T13:23:55.244Z,3.80
2023-03-22T13:26:28.309Z,4.53
2023-03-22T13:28:59.925Z,4.13
2023-03-22T13:31:38.189Z,4.40
2023-03-22T13:34:13.691Z,4.33
2023-03-22T13:36:40.244Z,4.17
2023-03-22T13:39:12.707Z,4.17
2023-03-22T13:41:39.238Z,4.70
2023-03-22T13:44:28.190Z,4.40
2023-03-22T13:47:00.069Z,4.40
2023-03-22T13:49:43.218Z,4.10
2023-03-22T13:52:10.157Z,4.40
2023-03-22T13:54:41.517Z,4.70
2023-03-22T13:57:17.501Z,4.30
2023-03-22T14:00:11.337Z,4.40
2023-03-22T14:02:42.260Z,3.70
2023-03-22T14:05:22.322Z,4.40
2023-03-22T14:07:56.744Z,8.10
2023-03-22T14:10:44.065Z,5.13
2023-03-22T14:13:41.286Z,3.93
2023-03-22T14:16:32.618Z,4.93
2023-03-22T14:18:59.862Z,4.37
2023-03-22T14:21:33.606Z,3.53
